sensor_id;sensor_type;location;lat;lon;timestamp;P1;durP1;ratioP1;P2;durP2;ratioP2
19482;SDS011;9882;51.166;6.992;2022-09-12T04:00:23;19.00;;;6.57;;
19482;SDS011;9882;51.166;6.992;2022-09-12T04:02:53;15.57;;;6.15;;
19482;SDS011;9882;51.166;6.992;2022-09-12T04:05:23;19.83;;;6.63;;
19482;SDS011;9882;51.166;6.992;2022-09-12T04:07:53;19.75;;;6.85;;
19482;SDS011;9882;51.166;6.992;2022-09-12T04:10:22;18.17;;;6.22;;
19482;SDS011;9882;51.166;6.992;2022-09-12T04:12:50;13.20;;;5.70;;
19482;SDS011;9882;51.166;6.992;2022-09-12T04:15:19;20.50;;;6.50;;
19482;SDS011;9882;51.166;6.992;2022-09-12T04:17:49;15.70;;;6.10;;
19482;SDS011;9882;51.166;6.992;2022-09-12T04:20:18;14.63;;;5.85;;
19482;SDS011;9882;51.166;6.992;2022-09-12T04:22:47;13.77;;;5.88;;
19482;SDS011;9882;51.166;6.992;2022-09-12T04:25:16;16.90;;;6.10;;
19482;SDS011;9882;51.166;6.992;2022-09-12T04:27:45;13.25;;;5.90;;
19482;SDS011;9882;51.166;6.992;2022-09-12T04:30:13;15.05;;;5.97;;
19482;SDS011;9882;51.166;6.992;2022-09-12T04:32:42;17.80;;;5.90;;
19482;SDS011;9882;51.166;6.992;2022-09-12T04:35:12;15.88;;;5.82;;
19482;SDS011;9882;51.166;6.992;2022-09-12T04:37:41;16.13;;;6.38;;
19482;SDS011;9882;51.166;6.992;2022-09-12T04:40:10;18.90;;;6.60;;
19482;SDS011;9882;51.166;6.992;2022-09-12T04:42:39;15.80;;;5.57;;
19482;SDS011;9882;51.166;6.992;2022-09-12T04:45:08;16.90;;;5.55;;
19482;SDS011;9882;51.166;6.992;2022-09-12T04:50:29;14.68;;;5.82;;
19482;SDS011;9882;51.166;6.992;2022-09-12T04:52:57;17.55;;;6.22;;
19482;SDS011;9882;51.166;6.992;2022-09-12T04:55:25;15.13;;;5.90;;
19482;SDS011;9882;51.166;6.992;2022-09-12T04:57:54;13.38;;;5.60;;
19482;SDS011;9882;51.166;6.992;2022-09-12T05:00:23;15.10;;;5.72;;
19482;SDS011;9882;51.166;6.992;2022-09-12T05:02:52;13.20;;;5.72;;
19482;SDS011;9882;51.166;6.992;2022-09-12T05:05:21;11.80;;;5.57;;
19482;SDS011;9882;51.166;6.992;2022-09-12T05:07:52;13.20;;;5.90;;
19482;SDS011;9882;51.166;6.992;2022-09-12T05:10:21;14.70;;;5.82;;
19482;SDS011;9882;51.166;6.992;2022-09-12T05:12:51;15.60;;;6.05;;
19482;SDS011;9882;51.166;6.992;2022-09-12T05:15:20;21.02;;;6.57;;
19482;SDS011;9882;51.166;6.992;2022-09-12T05:17:50;16.73;;;5.85;;
19482;SDS011;9882;51.166;6.992;2022-09-12T05:20:19;15.68;;;5.70;;
19482;SDS011;9882;51.166;6.992;2022-09-12T05:22:48;13.38;;;5.50;;
19482;SDS011;9882;51.166;6.992;2022-09-12T05:25:19;16.13;;;5.93;;
19482;SDS011;9882;51.166;6.992;2022-09-12T05:27:50;14.10;;;5.05;;
19482;SDS011;9882;51.166;6.992;2022-09-12T05:30:19;15.02;;;6.10;;
19482;SDS011;9882;51.166;6.992;2022-09-12T05:32:49;14.52;;;6.25;;
19482;SDS011;9882;51.166;6.992;2022-09-12T05:35:18;15.32;;;5.68;;
19482;SDS011;9882;51.166;6.992;2022-09-12T05:40:44;23.77;;;7.13;;
19482;SDS011;9882;51.166;6.992;2022-09-12T05:43:13;14.63;;;5.72;;
19482;SDS011;9882;51.166;6.992;2022-09-12T05:45:42;13.77;;;5.35;;
19482;SDS011;9882;51.166;6.992;2022-09-12T05:48:12;16.05;;;5.38;;
19482;SDS011;9882;51.166;6.992;2022-09-12T05:50:49;12.38;;;5.95;;
19482;SDS011;9882;51.166;6.992;2022-09-12T05:53:24;16.73;;;5.45;;
19482;SDS011;9882;51.166;6.992;2022-09-12T05:56:04;16.98;;;5.70;;
19482;SDS011;9882;51.166;6.992;2022-09-12T05:58:38;18.45;;;6.25;;
19482;SDS011;9882;51.166;6.992;2022-09-12T06:04:13;19.27;;;6.50;;
19482;SDS011;9882;51.166;6.992;2022-09-12T06:06:42;16.58;;;5.90;;
19482;SDS011;9882;51.166;6.992;2022-09-12T06:09:12;18.30;;;5.57;;
19482;SDS011;9882;51.166;6.992;2022-09-12T06:11:43;12.60;;;5.65;;
19482;SDS011;9882;51.166;6.992;2022-09-12T06:14:13;18.85;;;6.45;;
19482;SDS011;9882;51.166;6.992;2022-09-12T06:16:43;17.48;;;6.95;;
19482;SDS011;9882;51.166;6.992;2022-09-12T06:19:14;16.13;;;5.72;;
19482;SDS011;9882;51.166;6.992;2022-09-12T06:21:53;16.20;;;5.65;;
19482;SDS011;9882;51.166;6.992;2022-09-12T06:24:22;20.67;;;6.95;;
19482;SDS011;9882;51.166;6.992;2022-09-12T06:26:52;13.00;;;5.80;;
19482;SDS011;9882;51.166;6.992;2022-09-12T06:29:20;12.43;;;5.05;;
19482;SDS011;9882;51.166;6.992;2022-09-12T06:31:49;14.90;;;5.82;;
19482;SDS011;9882;51.166;6.992;2022-09-12T06:34:18;18.35;;;6.88;;
19482;SDS011;9882;51.166;6.992;2022-09-12T06:36:48;19.20;;;6.68;;
19482;SDS011;9882;51.166;6.992;2022-09-12T06:39:17;19.10;;;6.55;;
19482;SDS011;9882;51.166;6.992;2022-09-12T06:41:47;16.55;;;6.68;;
19482;SDS011;9882;51.166;6.992;2022-09-12T06:44:19;13.32;;;5.50;;
19482;SDS011;9882;51.166;6.992;2022-09-12T06:46:48;13.68;;;5.35;;
19482;SDS011;9882;51.166;6.992;2022-09-12T06:49:19;19.30;;;6.65;;
19482;SDS011;9882;51.166;6.992;2022-09-12T06:51:47;21.25;;;7.75;;
19482;SDS011;9882;51.166;6.992;2022-09-12T06:54:16;17.90;;;5.68;;
19482;SDS011;9882;51.166;6.992;2022-09-12T06:56:45;15.70;;;5.35;;
19482;SDS011;9882;51.166;6.992;2022-09-12T06:59:14;14.13;;;6.18;;
19482;SDS011;9882;51.166;6.992;2022-09-12T07:01:44;21.42;;;8.15;;
19482;SDS011;9882;51.166;6.992;2022-09-12T07:04:13;22.77;;;7.97;;
19482;SDS011;9882;51.166;6.992;2022-09-12T07:06:41;17.17;;;7.07;;
19482;SDS011;9882;51.166;6.992;2022-09-12T07:09:11;18.83;;;7.43;;
19482;SDS011;9882;51.166;6.992;2022-09-12T07:11:43;17.23;;;6.47;;
19482;SDS011;9882;51.166;6.992;2022-09-12T07:14:12;15.68;;;6.45;;
19482;SDS011;9882;51.166;6.992;2022-09-12T07:16:41;19.63;;;7.47;;
19482;SDS011;9882;51.166;6.992;2022-09-12T07:19:11;16.75;;;6.10;;
19482;SDS011;9882;51.166;6.992;2022-09-12T07:21:40;20.33;;;7.28;;
19482;SDS011;9882;51.166;6.992;2022-09-12T07:24:09;16.33;;;5.88;;
19482;SDS011;9882;51.166;6.992;2022-09-12T07:26:38;20.20;;;7.30;;
19482;SDS011;9882;51.166;6.992;2022-09-12T07:29:12;15.13;;;5.82;;
19482;SDS011;9882;51.166;6.992;2022-09-12T07:32:04;18.48;;;7.25;;
19482;SDS011;9882;51.166;6.992;2022-09-12T07:34:33;14.88;;;5.75;;
19482;SDS011;9882;51.166;6.992;2022-09-12T07:37:02;21.10;;;6.50;;
19482;SDS011;9882;51.166;6.992;2022-09-12T07:39:31;16.98;;;6.50;;
19482;SDS011;9882;51.166;6.992;2022-09-12T07:42:00;19.75;;;7.18;;
19482;SDS011;9882;51.166;6.992;2022-09-12T07:44:29;12.95;;;6.10;;
19482;SDS011;9882;51.166;6.992;2022-09-12T07:46:57;18.77;;;6.40;;
19482;SDS011;9882;51.166;6.992;2022-09-12T07:49:27;19.67;;;7.55;;
19482;SDS011;9882;51.166;6.992;2022-09-12T07:51:56;18.63;;;6.90;;
19482;SDS011;9882;51.166;6.992;2022-09-12T07:54:24;21.58;;;7.18;;
19482;SDS011;9882;51.166;6.992;2022-09-12T07:56:53;19.80;;;7.38;;
19482;SDS011;9882;51.166;6.992;2022-09-12T07:59:22;15.90;;;7.10;;
19482;SDS011;9882;51.166;6.992;2022-09-12T08:02:01;16.70;;;7.07;;
19482;SDS011;9882;51.166;6.992;2022-09-12T08:04:31;23.38;;;8.10;;
19482;SDS011;9882;51.166;6.992;2022-09-12T08:07:00;17.65;;;7.25;;
19482;SDS011;9882;51.166;6.992;2022-09-12T08:09:29;18.45;;;7.05;;
19482;SDS011;9882;51.166;6.992;2022-09-12T08:11:58;21.65;;;7.32;;
19482;SDS011;9882;51.166;6.992;2022-09-12T08:14:26;20.92;;;7.90;;
19482;SDS011;9882;51.166;6.992;2022-09-12T08:16:55;17.85;;;6.85;;
19482;SDS011;9882;51.166;6.992;2022-09-12T08:19:23;16.42;;;6.38;;
19482;SDS011;9882;51.166;6.992;2022-09-12T08:21:53;20.42;;;7.60;;
19482;SDS011;9882;51.166;6.992;2022-09-12T08:24:22;16.70;;;7.18;;
19482;SDS011;9882;51.166;6.992;2022-09-12T08:26:50;19.05;;;7.45;;
19482;SDS011;9882;51.166;6.992;2022-09-12T08:29:19;21.02;;;7.50;;
19482;SDS011;9882;51.166;6.992;2022-09-12T08:31:47;20.40;;;7.78;;
19482;SDS011;9882;51.166;6.992;2022-09-12T08:34:18;21.05;;;7.65;;
19482;SDS011;9882;51.166;6.992;2022-09-12T08:36:50;17.83;;;6.97;;
19482;SDS011;9882;51.166;6.992;2022-09-12T08:39:21;22.95;;;8.15;;
19482;SDS011;9882;51.166;6.992;2022-09-12T08:41:55;18.13;;;6.40;;
19482;SDS011;9882;51.166;6.992;2022-09-12T08:47:31;22.23;;;8.00;;
19482;SDS011;9882;51.166;6.992;2022-09-12T08:50:04;17.08;;;6.75;;
19482;SDS011;9882;51.166;6.992;2022-09-12T08:52:40;16.20;;;6.35;;
19482;SDS011;9882;51.166;6.992;2022-09-12T08:55:25;18.33;;;6.50;;
19482;SDS011;9882;51.166;6.992;2022-09-12T08:57:58;15.63;;;6.28;;
19482;SDS011;9882;51.166;6.992;2022-09-12T09:00:34;16.60;;;5.90;;
19482;SDS011;9882;51.166;6.992;2022-09-12T09:06:06;13.57;;;5.60;;
19482;SDS011;9882;51.166;6.992;2022-09-12T09:08:45;14.18;;;5.53;;
19482;SDS011;9882;51.166;6.992;2022-09-12T09:11:22;13.32;;;5.40;;
19482;SDS011;9882;51.166;6.992;2022-09-12T09:14:03;14.57;;;5.80;;
19482;SDS011;9882;51.166;6.992;2022-09-12T09:17:02;12.07;;;5.35;;
19482;SDS011;9882;51.166;6.992;2022-09-12T09:19:39;15.57;;;6.03;;
19482;SDS011;9882;51.166;6.992;2022-09-12T09:22:17;15.32;;;5.43;;
19482;SDS011;9882;51.166;6.992;2022-09-12T09:24:57;11.20;;;4.95;;
19482;SDS011;9882;51.166;6.992;2022-09-12T09:27:33;11.73;;;4.93;;
19482;SDS011;9882;51.166;6.992;2022-09-12T09:30:12;16.35;;;5.63;;
19482;SDS011;9882;51.166;6.992;2022-09-12T09:32:42;15.85;;;5.50;;
19482;SDS011;9882;51.166;6.992;2022-09-12T09:35:17;15.27;;;5.50;;
19482;SDS011;9882;51.166;6.992;2022-09-12T09:37:53;17.20;;;5.40;;
19482;SDS011;9882;51.166;6.992;2022-09-12T09:40:32;11.73;;;5.32;;
19482;SDS011;9882;51.166;6.992;2022-09-12T09:43:09;14.32;;;5.43;;
19482;SDS011;9882;51.166;6.992;2022-09-12T09:45:45;15.02;;;5.60;;
19482;SDS011;9882;51.166;6.992;2022-09-12T09:48:15;12.27;;;5.20;;
19482;SDS011;9882;51.166;6.992;2022-09-12T09:50:47;16.48;;;5.25;;
19482;SDS011;9882;51.166;6.992;2022-09-12T09:53:25;15.68;;;4.82;;
19482;SDS011;9882;51.166;6.992;2022-09-12T09:56:01;8.20;;;4.47;;
19482;SDS011;9882;51.166;6.992;2022-09-12T09:58:35;10.90;;;4.88;;
19482;SDS011;9882;51.166;6.992;2022-09-12T10:01:04;11.20;;;4.65;;
19482;SDS011;9882;51.166;6.992;2022-09-12T10:03:38;8.82;;;4.32;;
19482;SDS011;9882;51.166;6.992;2022-09-12T10:06:21;10.10;;;4.20;;
19482;SDS011;9882;51.166;6.992;2022-09-12T10:09:02;11.07;;;5.03;;
19482;SDS011;9882;51.166;6.992;2022-09-12T10:11:35;8.75;;;3.97;;
19482;SDS011;9882;51.166;6.992;2022-09-12T10:14:33;7.28;;;4.03;;
19482;SDS011;9882;51.166;6.992;2022-09-12T10:17:23;14.43;;;4.65;;
19482;SDS011;9882;51.166;6.992;2022-09-12T10:19:57;12.77;;;4.40;;
19482;SDS011;9882;51.166;6.992;2022-09-12T10:22:36;6.47;;;3.55;;
19482;SDS011;9882;51.166;6.992;2022-09-12T10:25:06;8.65;;;3.90;;
19482;SDS011;9882;51.166;6.992;2022-09-12T10:27:39;10.65;;;3.97;;
19482;SDS011;9882;51.166;6.992;2022-09-12T10:30:16;7.25;;;3.80;;
19482;SDS011;9882;51.166;6.992;2022-09-12T10:32:47;9.98;;;3.83;;
19482;SDS011;9882;51.166;6.992;2022-09-12T10:35:17;9.00;;;3.95;;
19482;SDS011;9882;51.166;6.992;2022-09-12T10:37:49;9.20;;;3.90;;
19482;SDS011;9882;51.166;6.992;2022-09-12T10:40:21;13.35;;;3.80;;
19482;SDS011;9882;51.166;6.992;2022-09-12T10:42:52;8.05;;;3.88;;
19482;SDS011;9882;51.166;6.992;2022-09-12T10:45:24;7.53;;;3.47;;
19482;SDS011;9882;51.166;6.992;2022-09-12T10:47:56;14.38;;;4.10;;
19482;SDS011;9882;51.166;6.992;2022-09-12T10:50:28;12.77;;;3.50;;
19482;SDS011;9882;51.166;6.992;2022-09-12T10:53:15;6.35;;;3.45;;
19482;SDS011;9882;51.166;6.992;2022-09-12T10:55:54;6.32;;;3.15;;
19482;SDS011;9882;51.166;6.992;2022-09-12T10:58:35;4.57;;;3.25;;
19482;SDS011;9882;51.166;6.992;2022-09-12T11:01:16;8.00;;;3.47;;
19482;SDS011;9882;51.166;6.992;2022-09-12T11:04:01;5.95;;;3.47;;
19482;SDS011;9882;51.166;6.992;2022-09-12T11:06:55;5.78;;;3.10;;
19482;SDS011;9882;51.166;6.992;2022-09-12T11:09:47;15.70;;;3.90;;
19482;SDS011;9882;51.166;6.992;2022-09-12T11:12:23;8.20;;;3.53;;
19482;SDS011;9882;51.166;6.992;2022-09-12T11:15:02;6.68;;;3.65;;
19482;SDS011;9882;51.166;6.992;2022-09-12T11:17:44;6.97;;;3.15;;
19482;SDS011;9882;51.166;6.992;2022-09-12T11:20:33;6.35;;;3.38;;
19482;SDS011;9882;51.166;6.992;2022-09-12T11:23:22;7.47;;;3.67;;
19482;SDS011;9882;51.166;6.992;2022-09-12T11:26:18;6.40;;;3.05;;
19482;SDS011;9882;51.166;6.992;2022-09-12T11:28:56;7.68;;;3.35;;
19482;SDS011;9882;51.166;6.992;2022-09-12T11:31:41;5.85;;;3.28;;
19482;SDS011;9882;51.166;6.992;2022-09-12T11:34:21;9.27;;;3.67;;
19482;SDS011;9882;51.166;6.992;2022-09-12T11:37:03;12.20;;;3.17;;
19482;SDS011;9882;51.166;6.992;2022-09-12T11:39:44;7.03;;;3.25;;
19482;SDS011;9882;51.166;6.992;2022-09-12T11:42:20;5.65;;;2.83;;
19482;SDS011;9882;51.166;6.992;2022-09-12T11:44:55;5.95;;;2.92;;
19482;SDS011;9882;51.166;6.992;2022-09-12T11:47:31;8.57;;;3.47;;
19482;SDS011;9882;51.166;6.992;2022-09-12T11:50:04;6.22;;;3.40;;
19482;SDS011;9882;51.166;6.992;2022-09-12T11:52:47;5.80;;;3.40;;
19482;SDS011;9882;51.166;6.992;2022-09-12T11:55:17;4.82;;;2.80;;
19482;SDS011;9882;51.166;6.992;2022-09-12T11:57:51;7.82;;;3.70;;
19482;SDS011;9882;51.166;6.992;2022-09-12T12:00:22;8.93;;;3.50;;
19482;SDS011;9882;51.166;6.992;2022-09-12T12:02:57;7.13;;;3.22;;
19482;SDS011;9882;51.166;6.992;2022-09-12T12:05:39;7.63;;;3.17;;
19482;SDS011;9882;51.166;6.992;2022-09-12T12:08:13;7.20;;;3.08;;
19482;SDS011;9882;51.166;6.992;2022-09-12T12:10:42;5.95;;;2.92;;
19482;SDS011;9882;51.166;6.992;2022-09-12T12:13:16;9.85;;;3.40;;
19482;SDS011;9882;51.166;6.992;2022-09-12T12:15:48;6.93;;;3.10;;
19482;SDS011;9882;51.166;6.992;2022-09-12T12:18:21;6.70;;;3.50;;
19482;SDS011;9882;51.166;6.992;2022-09-12T12:20:53;9.88;;;3.85;;
19482;SDS011;9882;51.166;6.992;2022-09-12T12:23:23;5.75;;;2.80;;
19482;SDS011;9882;51.166;6.992;2022-09-12T12:25:55;5.35;;;2.92;;
19482;SDS011;9882;51.166;6.992;2022-09-12T12:31:25;6.70;;;3.10;;
19482;SDS011;9882;51.166;6.992;2022-09-12T12:34:02;8.30;;;3.28;;
19482;SDS011;9882;51.166;6.992;2022-09-12T12:36:47;8.52;;;3.55;;
19482;SDS011;9882;51.166;6.992;2022-09-12T12:48:45;7.43;;;3.35;;
19482;SDS011;9882;51.166;6.992;2022-09-12T12:57:02;6.28;;;3.28;;
19482;SDS011;9882;51.166;6.992;2022-09-12T12:59:33;12.82;;;3.65;;
19482;SDS011;9882;51.166;6.992;2022-09-12T13:02:01;6.03;;;3.28;;
19482;SDS011;9882;51.166;6.992;2022-09-12T13:04:31;6.45;;;3.30;;
19482;SDS011;9882;51.166;6.992;2022-09-12T13:07:01;8.32;;;3.20;;
19482;SDS011;9882;51.166;6.992;2022-09-12T13:09:36;7.05;;;3.70;;
19482;SDS011;9882;51.166;6.992;2022-09-12T13:12:11;5.35;;;2.78;;
19482;SDS011;9882;51.166;6.992;2022-09-12T13:14:53;6.25;;;3.45;;
19482;SDS011;9882;51.166;6.992;2022-09-12T13:17:25;5.10;;;2.97;;
19482;SDS011;9882;51.166;6.992;2022-09-12T13:20:13;5.95;;;3.42;;
19482;SDS011;9882;51.166;6.992;2022-09-12T13:22:54;9.25;;;3.20;;
19482;SDS011;9882;51.166;6.992;2022-09-12T13:25:29;5.10;;;2.90;;
19482;SDS011;9882;51.166;6.992;2022-09-12T13:28:00;4.80;;;2.65;;
19482;SDS011;9882;51.166;6.992;2022-09-12T13:30:32;5.43;;;3.00;;
19482;SDS011;9882;51.166;6.992;2022-09-12T13:33:16;5.95;;;3.00;;
19482;SDS011;9882;51.166;6.992;2022-09-12T13:36:01;5.95;;;3.35;;
19482;SDS011;9882;51.166;6.992;2022-09-12T13:38:45;6.32;;;3.47;;
19482;SDS011;9882;51.166;6.992;2022-09-12T13:41:38;5.00;;;2.45;;
19482;SDS011;9882;51.166;6.992;2022-09-12T13:44:17;7.15;;;2.80;;
19482;SDS011;9882;51.166;6.992;2022-09-12T13:46:47;5.20;;;3.10;;
19482;SDS011;9882;51.166;6.992;2022-09-12T13:49:18;9.20;;;3.33;;
19482;SDS011;9882;51.166;6.992;2022-09-12T13:51:54;9.10;;;3.20;;
19482;SDS011;9882;51.166;6.992;2022-09-12T13:54:28;5.07;;;2.85;;
19482;SDS011;9882;51.166;6.992;2022-09-12T13:57:00;9.52;;;3.20;;
19482;SDS011;9882;51.166;6.992;2022-09-12T13:59:36;13.65;;;3.10;;
19482;SDS011;9882;51.166;6.992;2022-09-12T14:02:15;5.07;;;2.97;;
19482;SDS011;9882;51.166;6.992;2022-09-12T14:04:46;6.47;;;2.70;;
19482;SDS011;9882;51.166;6.992;2022-09-12T14:07:32;10.82;;;2.58;;
19482;SDS011;9882;51.166;6.992;2022-09-12T14:10:05;4.80;;;2.85;;
19482;SDS011;9882;51.166;6.992;2022-09-12T14:12:37;4.10;;;2.60;;
19482;SDS011;9882;51.166;6.992;2022-09-12T14:15:14;6.28;;;2.95;;
19482;SDS011;9882;51.166;6.992;2022-09-12T14:17:47;4.25;;;2.45;;
19482;SDS011;9882;51.166;6.992;2022-09-12T14:20:19;5.30;;;2.85;;
19482;SDS011;9882;51.166;6.992;2022-09-12T14:22:49;8.38;;;2.80;;
19482;SDS011;9882;51.166;6.992;2022-09-12T14:25:19;4.55;;;2.60;;
19482;SDS011;9882;51.166;6.992;2022-09-12T14:27:51;5.07;;;2.70;;
19482;SDS011;9882;51.166;6.992;2022-09-12T14:30:23;4.55;;;2.53;;
19482;SDS011;9882;51.166;6.992;2022-09-12T14:33:14;4.85;;;2.75;;
19482;SDS011;9882;51.166;6.992;2022-09-12T14:35:46;4.85;;;2.60;;
19482;SDS011;9882;51.166;6.992;2022-09-12T14:38:20;4.35;;;2.47;;
19482;SDS011;9882;51.166;6.992;2022-09-12T14:40:57;3.28;;;2.22;;
19482;SDS011;9882;51.166;6.992;2022-09-12T14:43:29;4.30;;;2.70;;
19482;SDS011;9882;51.166;6.992;2022-09-12T14:46:00;4.38;;;2.70;;
19482;SDS011;9882;51.166;6.992;2022-09-12T14:48:33;13.20;;;2.70;;
19482;SDS011;9882;51.166;6.992;2022-09-12T14:51:04;5.35;;;2.40;;
19482;SDS011;9882;51.166;6.992;2022-09-12T14:53:33;3.97;;;2.25;;
19482;SDS011;9882;51.166;6.992;2022-09-12T14:56:05;4.15;;;2.33;;
19482;SDS011;9882;51.166;6.992;2022-09-12T14:58:37;4.97;;;2.70;;
19482;SDS011;9882;51.166;6.992;2022-09-12T15:01:22;2.83;;;2.30;;
19482;SDS011;9882;51.166;6.992;2022-09-12T15:03:53;5.63;;;2.67;;
19482;SDS011;9882;51.166;6.992;2022-09-12T15:06:25;3.40;;;2.35;;
19482;SDS011;9882;51.166;6.992;2022-09-12T15:08:56;5.68;;;2.50;;
19482;SDS011;9882;51.166;6.992;2022-09-12T15:11:26;5.13;;;2.70;;
19482;SDS011;9882;51.166;6.992;2022-09-12T15:13:56;5.45;;;2.70;;
19482;SDS011;9882;51.166;6.992;2022-09-12T15:16:24;4.25;;;2.63;;
19482;SDS011;9882;51.166;6.992;2022-09-12T15:18:53;5.40;;;2.65;;
19482;SDS011;9882;51.166;6.992;2022-09-12T15:21:21;2.67;;;2.13;;
19482;SDS011;9882;51.166;6.992;2022-09-12T15:23:51;6.35;;;2.60;;
19482;SDS011;9882;51.166;6.992;2022-09-12T15:26:20;8.57;;;2.42;;
19482;SDS011;9882;51.166;6.992;2022-09-12T15:28:52;3.58;;;2.40;;
19482;SDS011;9882;51.166;6.992;2022-09-12T15:31:23;5.97;;;2.40;;
19482;SDS011;9882;51.166;6.992;2022-09-12T15:33:53;3.60;;;2.50;;
19482;SDS011;9882;51.166;6.992;2022-09-12T15:36:23;9.13;;;2.55;;
19482;SDS011;9882;51.166;6.992;2022-09-12T15:38:54;3.08;;;2.38;;
19482;SDS011;9882;51.166;6.992;2022-09-12T15:41:24;3.20;;;2.30;;
19482;SDS011;9882;51.166;6.992;2022-09-12T15:43:56;5.88;;;2.90;;
19482;SDS011;9882;51.166;6.992;2022-09-12T15:46:26;6.00;;;2.42;;
19482;SDS011;9882;51.166;6.992;2022-09-12T15:48:55;5.57;;;2.30;;
19482;SDS011;9882;51.166;6.992;2022-09-12T15:51:26;4.93;;;2.67;;
19482;SDS011;9882;51.166;6.992;2022-09-12T15:53:56;8.55;;;3.00;;
19482;SDS011;9882;51.166;6.992;2022-09-12T15:56:24;6.63;;;2.58;;
19482;SDS011;9882;51.166;6.992;2022-09-12T15:58:53;4.93;;;2.85;;
19482;SDS011;9882;51.166;6.992;2022-09-12T16:01:27;4.63;;;2.53;;
19482;SDS011;9882;51.166;6.992;2022-09-12T16:03:55;8.15;;;2.75;;
19482;SDS011;9882;51.166;6.992;2022-09-12T16:06:24;3.80;;;2.50;;
19482;SDS011;9882;51.166;6.992;2022-09-12T16:08:57;5.25;;;2.58;;
19482;SDS011;9882;51.166;6.992;2022-09-12T16:11:26;4.32;;;2.50;;
19482;SDS011;9882;51.166;6.992;2022-09-12T16:13:54;3.10;;;2.30;;
19482;SDS011;9882;51.166;6.992;2022-09-12T16:16:24;4.28;;;2.28;;
19482;SDS011;9882;51.166;6.992;2022-09-12T16:18:53;4.20;;;2.83;;
19482;SDS011;9882;51.166;6.992;2022-09-12T16:21:22;5.80;;;2.25;;
19482;SDS011;9882;51.166;6.992;2022-09-12T16:23:52;5.57;;;2.60;;
19482;SDS011;9882;51.166;6.992;2022-09-12T16:26:20;7.10;;;2.80;;
19482;SDS011;9882;51.166;6.992;2022-09-12T16:28:53;4.90;;;2.80;;
19482;SDS011;9882;51.166;6.992;2022-09-12T16:31:22;6.20;;;2.78;;
19482;SDS011;9882;51.166;6.992;2022-09-12T16:33:52;4.30;;;2.75;;
19482;SDS011;9882;51.166;6.992;2022-09-12T16:36:22;4.10;;;2.75;;
19482;SDS011;9882;51.166;6.992;2022-09-12T16:38:51;3.63;;;2.63;;
19482;SDS011;9882;51.166;6.992;2022-09-12T16:41:21;4.47;;;2.60;;
19482;SDS011;9882;51.166;6.992;2022-09-12T16:43:52;3.45;;;2.55;;
19482;SDS011;9882;51.166;6.992;2022-09-12T16:46:22;3.95;;;2.33;;
19482;SDS011;9882;51.166;6.992;2022-09-12T16:48:52;6.50;;;2.70;;
19482;SDS011;9882;51.166;6.992;2022-09-12T16:51:23;4.57;;;2.70;;
19482;SDS011;9882;51.166;6.992;2022-09-12T16:53:53;5.15;;;2.85;;
19482;SDS011;9882;51.166;6.992;2022-09-12T16:56:22;6.75;;;3.10;;
19482;SDS011;9882;51.166;6.992;2022-09-12T16:58:51;5.55;;;2.90;;
19482;SDS011;9882;51.166;6.992;2022-09-12T17:01:20;5.03;;;2.63;;
19482;SDS011;9882;51.166;6.992;2022-09-12T17:03:51;5.25;;;2.50;;
19482;SDS011;9882;51.166;6.992;2022-09-12T17:06:21;6.03;;;2.78;;
19482;SDS011;9882;51.166;6.992;2022-09-12T17:08:51;5.45;;;2.53;;
19482;SDS011;9882;51.166;6.992;2022-09-12T17:11:21;3.35;;;2.30;;
19482;SDS011;9882;51.166;6.992;2022-09-12T17:13:52;5.25;;;2.75;;
19482;SDS011;9882;51.166;6.992;2022-09-12T17:16:30;4.55;;;3.03;;
19482;SDS011;9882;51.166;6.992;2022-09-12T17:18:59;3.78;;;2.63;;
19482;SDS011;9882;51.166;6.992;2022-09-12T17:21:29;5.38;;;2.90;;
19482;SDS011;9882;51.166;6.992;2022-09-12T17:23:58;3.22;;;2.55;;
19482;SDS011;9882;51.166;6.992;2022-09-12T17:26:26;3.78;;;2.78;;
19482;SDS011;9882;51.166;6.992;2022-09-12T17:28:55;3.85;;;2.47;;
19482;SDS011;9882;51.166;6.992;2022-09-12T17:31:23;5.63;;;3.10;;
19482;SDS011;9882;51.166;6.992;2022-09-12T17:33:54;4.93;;;2.92;;
19482;SDS011;9882;51.166;6.992;2022-09-12T17:36:24;3.88;;;2.65;;
19482;SDS011;9882;51.166;6.992;2022-09-12T17:38:54;3.70;;;2.70;;
19482;SDS011;9882;51.166;6.992;2022-09-12T17:41:23;5.70;;;2.78;;
19482;SDS011;9882;51.166;6.992;2022-09-12T17:43:54;4.40;;;2.92;;
19482;SDS011;9882;51.166;6.992;2022-09-12T17:46:24;9.13;;;3.17;;
19482;SDS011;9882;51.166;6.992;2022-09-12T17:48:56;6.18;;;2.78;;
19482;SDS011;9882;51.166;6.992;2022-09-12T17:51:27;4.55;;;2.78;;
19482;SDS011;9882;51.166;6.992;2022-09-12T17:53:59;5.15;;;2.67;;
19482;SDS011;9882;51.166;6.992;2022-09-12T17:56:30;5.65;;;2.60;;
19482;SDS011;9882;51.166;6.992;2022-09-12T17:59:00;5.60;;;2.75;;
19482;SDS011;9882;51.166;6.992;2022-09-12T18:01:29;3.58;;;2.58;;
19482;SDS011;9882;51.166;6.992;2022-09-12T18:04:16;9.70;;;2.85;;
19482;SDS011;9882;51.166;6.992;2022-09-12T18:06:45;4.95;;;2.67;;
19482;SDS011;9882;51.166;6.992;2022-09-12T18:09:17;4.72;;;2.63;;
19482;SDS011;9882;51.166;6.992;2022-09-12T18:11:47;5.85;;;2.80;;
19482;SDS011;9882;51.166;6.992;2022-09-12T18:14:16;4.63;;;2.78;;
19482;SDS011;9882;51.166;6.992;2022-09-12T18:16:45;13.73;;;3.25;;
19482;SDS011;9882;51.166;6.992;2022-09-12T18:19:14;4.45;;;2.67;;
19482;SDS011;9882;51.166;6.992;2022-09-12T18:21:43;7.00;;;2.90;;
19482;SDS011;9882;51.166;6.992;2022-09-12T18:24:12;6.78;;;2.90;;
19482;SDS011;9882;51.166;6.992;2022-09-12T18:26:42;9.18;;;3.40;;
19482;SDS011;9882;51.166;6.992;2022-09-12T18:29:11;3.60;;;2.78;;
19482;SDS011;9882;51.166;6.992;2022-09-12T18:31:43;7.82;;;3.08;;
19482;SDS011;9882;51.166;6.992;2022-09-12T18:34:12;7.30;;;3.35;;
19482;SDS011;9882;51.166;6.992;2022-09-12T18:36:44;4.78;;;2.97;;
19482;SDS011;9882;51.166;6.992;2022-09-12T18:39:15;7.65;;;3.17;;
19482;SDS011;9882;51.166;6.992;2022-09-12T18:44:22;8.57;;;3.42;;
19482;SDS011;9882;51.166;6.992;2022-09-12T18:46:50;5.78;;;3.35;;
19482;SDS011;9882;51.166;6.992;2022-09-12T18:49:19;5.65;;;2.75;;
19482;SDS011;9882;51.166;6.992;2022-09-12T18:51:47;6.85;;;3.15;;
19482;SDS011;9882;51.166;6.992;2022-09-12T18:54:16;4.55;;;3.10;;
19482;SDS011;9882;51.166;6.992;2022-09-12T18:56:44;6.35;;;3.03;;
19482;SDS011;9882;51.166;6.992;2022-09-12T18:59:14;5.55;;;3.08;;
19482;SDS011;9882;51.166;6.992;2022-09-12T19:01:43;3.72;;;2.65;;
19482;SDS011;9882;51.166;6.992;2022-09-12T19:04:12;4.45;;;2.85;;
19482;SDS011;9882;51.166;6.992;2022-09-12T19:06:42;7.95;;;3.15;;
19482;SDS011;9882;51.166;6.992;2022-09-12T19:09:13;5.43;;;3.05;;
19482;SDS011;9882;51.166;6.992;2022-09-12T19:14:34;6.68;;;3.08;;
19482;SDS011;9882;51.166;6.992;2022-09-12T19:17:03;6.47;;;3.13;;
19482;SDS011;9882;51.166;6.992;2022-09-12T19:19:31;6.65;;;3.08;;
19482;SDS011;9882;51.166;6.992;2022-09-12T19:22:01;6.32;;;3.13;;
19482;SDS011;9882;51.166;6.992;2022-09-12T19:24:30;8.00;;;3.30;;
19482;SDS011;9882;51.166;6.992;2022-09-12T19:26:58;7.53;;;3.17;;
19482;SDS011;9882;51.166;6.992;2022-09-12T19:29:27;5.55;;;3.38;;
19482;SDS011;9882;51.166;6.992;2022-09-12T19:31:56;7.32;;;3.17;;
19482;SDS011;9882;51.166;6.992;2022-09-12T19:34:25;5.63;;;3.08;;
19482;SDS011;9882;51.166;6.992;2022-09-12T19:36:54;5.63;;;2.80;;
19482;SDS011;9882;51.166;6.992;2022-09-12T19:39:25;4.63;;;2.95;;
19482;SDS011;9882;51.166;6.992;2022-09-12T19:41:53;5.95;;;3.17;;
19482;SDS011;9882;51.166;6.992;2022-09-12T19:44:22;5.40;;;3.13;;
19482;SDS011;9882;51.166;6.992;2022-09-12T19:46:52;5.47;;;3.10;;
19482;SDS011;9882;51.166;6.992;2022-09-12T19:49:26;4.00;;;2.75;;
19482;SDS011;9882;51.166;6.992;2022-09-12T19:51:55;7.72;;;3.30;;
19482;SDS011;9882;51.166;6.992;2022-09-12T19:54:23;8.30;;;2.42;;
19482;SDS011;9882;51.166;6.992;2022-09-12T19:56:52;10.88;;;3.08;;
19482;SDS011;9882;51.166;6.992;2022-09-12T19:59:21;5.72;;;3.13;;
19482;SDS011;9882;51.166;6.992;2022-09-12T20:01:49;5.85;;;3.17;;
19482;SDS011;9882;51.166;6.992;2022-09-12T20:04:21;4.25;;;2.80;;